Time;durP1;ratioP1;P1;durP2;ratioP2;P2;SDS_P1;SDS_P2;PMS_P1;PMS_P2;Temp;Humidity;BMP_temperature;BMP_pressure;BME280_temperature;BME280_humidity;BME280_pressure;Samples;Min_cycle;Max_cycle;Signal;HPM_P1;HPM_P2
2023/04/30 00:00:31;;;;;;;0.00;0.00;;;;;;;16.72;82.30;101235.97;7352417;19;20751;-62
2023/04/30 00:02:57;;;;;;;0.10;0.10;;;;;;;16.71;82.10;101236.91;7354077;19;20022;-62
2023/04/30 00:05:22;;;;;;;0.10;0.10;;;;;;;16.70;82.13;101231.66;7352733;19;20015;-62
2023/04/30 00:07:48;;;;;;;0.10;0.10;;;;;;;16.71;82.22;101242.19;7357919;19;20047;-62
2023/04/30 00:10:13;;;;;;;0.08;0.08;;;;;;;16.72;82.16;101240.41;7355483;19;20039;-62
2023/04/30 00:12:39;;;;;;;0.00;0.00;;;;;;;16.70;82.31;101232.53;7355508;19;20014;-62
2023/04/30 00:15:05;;;;;;;0.10;0.10;;;;;;;16.71;82.02;101238.66;7356267;19;20046;-62
2023/04/30 00:17:30;;;;;;;0.10;0.10;;;;;;;16.70;81.92;101242.22;7354726;19;20014;-62
2023/04/30 00:19:55;;;;;;;0.10;0.10;;;;;;;16.70;81.72;101240.44;7352104;19;20028;-62
2023/04/30 00:22:21;;;;;;;0.10;0.10;;;;;;;16.61;81.74;101219.69;7357829;19;20035;-62
2023/04/30 00:24:47;;;;;;;0.10;0.10;;;;;;;16.68;82.00;101237.00;7350634;19;20010;-62
2023/04/30 00:27:12;;;;;;;0.10;0.10;;;;;;;16.67;82.19;101230.00;7354162;19;20023;-62
2023/04/30 00:29:37;;;;;;;0.10;0.10;;;;;;;16.66;81.76;101228.28;7355004;19;20128;-61
2023/04/30 00:32:03;;;;;;;0.10;0.10;;;;;;;16.65;81.59;101229.22;7357113;19;20011;-62
2023/04/30 00:34:28;;;;;;;0.00;0.00;;;;;;;16.64;81.79;101226.66;7354358;19;20050;-62
2023/04/30 00:36:54;;;;;;;0.10;0.10;;;;;;;16.62;81.63;101224.03;7355168;19;20007;-62
2023/04/30 00:39:20;;;;;;;0.05;0.05;;;;;;;16.58;82.11;101217.19;7352230;19;20371;-62
2023/04/30 00:41:45;;;;;;;0.00;0.00;;;;;;;16.59;81.73;101216.28;7355989;19;20026;-62
2023/04/30 00:44:10;;;;;;;0.10;0.10;;;;;;;16.58;81.64;101211.94;7352181;19;20011;-63
2023/04/30 00:46:36;;;;;;;0.10;0.10;;;;;;;16.56;82.15;101216.38;7357321;19;20018;-62
2023/04/30 00:49:03;;;;;;;0.00;0.00;;;;;;;16.53;81.74;101213.88;7353007;19;20467;-62
2023/04/30 00:51:31;;;;;;;0.10;0.10;;;;;;;16.54;81.57;101215.59;7355160;19;20002;-62
2023/04/30 00:53:59;;;;;;;0.00;0.00;;;;;;;16.39;81.79;101200.38;7352300;19;20031;-62
2023/04/30 00:56:25;;;;;;;0.00;0.00;;;;;;;16.51;82.03;101221.84;7356020;19;20010;-62
2023/04/30 00:58:55;;;;;;;0.10;0.10;;;;;;;16.48;81.53;101221.13;7351860;19;20025;-62
2023/04/30 01:01:24;;;;;;;0.10;0.10;;;;;;;16.47;81.38;101224.66;7355770;19;20018;-62
2023/04/30 01:03:51;;;;;;;0.10;0.10;;;;;;;16.44;81.38;101230.06;7349497;19;20003;-62
2023/04/30 01:06:16;;;;;;;0.00;0.00;;;;;;;16.37;80.74;101223.28;7353982;19;20018;-62
2023/04/30 01:08:42;;;;;;;0.03;0.03;;;;;;;16.29;80.09;101216.53;7354084;19;20006;-62
2023/04/30 01:11:39;;;;;;;0.10;0.10;;;;;;;16.23;77.41;101211.50;7355504;19;20007;-62
2023/04/30 01:14:24;;;;;;;0.00;0.00;;;;;;;16.13;78.18;101212.78;7257682;19;2004102;-62
2023/04/30 01:16:58;;;;;;;0.10;0.10;;;;;;;15.97;78.49;101206.38;7357842;19;20373;-62
2023/04/30 01:19:44;;;;;;;0.10;0.10;;;;;;;15.88;79.67;101198.81;7360591;19;20021;-62
2023/04/30 01:22:22;;;;;;;0.08;0.08;;;;;;;15.78;79.09;101204.41;7361814;19;20579;-62
2023/04/30 01:25:09;;;;;;;0.03;0.03;;;;;;;15.69;79.77;101202.09;7359615;19;20033;-62
2023/04/30 01:28:16;;;;;;;0.08;0.08;;;;;;;15.62;78.86;101203.19;7360644;19;20433;-62
2023/04/30 01:30:45;;;;;;;0.00;0.00;;;;;;;15.47;80.73;101191.44;7255536;19;2004523;-62
2023/04/30 01:33:12;;;;;;;0.05;0.05;;;;;;;15.49;80.97;101201.91;7356565;19;20500;-62
2023/04/30 01:35:52;;;;;;;0.10;0.10;;;;;;;15.46;81.01;101202.00;7356464;19;20547;-62
2023/04/30 01:38:18;;;;;;;0.00;0.00;;;;;;;15.41;81.27;101206.56;7360420;19;20017;-62
2023/04/30 01:40:46;;;;;;;0.00;0.00;;;;;;;15.39;81.46;101189.97;7360953;19;20014;-62
2023/04/30 01:43:26;;;;;;;0.00;0.00;;;;;;;15.37;81.91;101186.56;7356855;19;20039;-62
2023/04/30 01:45:57;;;;;;;0.08;0.08;;;;;;;15.34;81.59;101178.75;7358186;19;20011;-62
2023/04/30 01:48:29;;;;;;;0.00;0.00;;;;;;;15.33;80.97;101175.25;7355096;19;20048;-62
2023/04/30 01:51:37;;;;;;;0.08;0.08;;;;;;;15.30;79.54;101189.38;7359587;19;20065;-62
2023/04/30 01:54:29;;;;;;;0.00;0.00;;;;;;;15.25;80.06;101188.66;7254580;19;2004020;-62
2023/04/30 01:57:03;;;;;;;0.10;0.10;;;;;;;15.19;79.99;101181.00;7359138;19;20027;-62
2023/04/30 01:59:32;;;;;;;0.00;0.00;;;;;;;14.81;79.63;101126.22;7347873;19;20014;-61
2023/04/30 02:01:57;;;;;;;0.00;0.00;;;;;;;15.09;78.90;101184.00;7356594;19;20011;-60
2023/04/30 02:04:23;;;;;;;0.00;0.00;;;;;;;15.02;79.10;101176.31;7358518;19;20045;-62
2023/04/30 02:06:48;;;;;;;0.00;0.00;;;;;;;14.97;79.72;101172.13;7354686;19;20094;-60
2023/04/30 02:09:13;;;;;;;0.08;0.08;;;;;;;14.91;78.74;101172.31;7358510;19;20016;-61
2023/04/30 02:11:39;;;;;;;0.00;0.00;;;;;;;14.86;78.79;101172.47;7359953;19;20034;-60
2023/04/30 02:14:05;;;;;;;0.00;0.00;;;;;;;14.80;78.74;101170.06;7353997;19;20014;-60
2023/04/30 02:16:31;;;;;;;0.00;0.00;;;;;;;14.72;78.74;101167.66;7357413;19;20031;-60
2023/04/30 02:18:56;;;;;;;0.00;0.00;;;;;;;14.68;78.82;101171.28;7359460;19;20011;-60
2023/04/30 02:21:21;;;;;;;0.10;0.10;;;;;;;14.63;79.57;101151.31;7350791;19;20060;-61
2023/04/30 02:23:47;;;;;;;0.00;0.00;;;;;;;14.58;80.13;101153.25;7357020;19;20073;-60
2023/04/30 02:26:12;;;;;;;0.10;0.10;;;;;;;14.56;80.43;101150.66;7357842;19;20044;-61
2023/04/30 02:28:38;;;;;;;0.08;0.08;;;;;;;14.57;81.06;101152.38;7353171;19;20044;-60
2023/04/30 02:31:03;;;;;;;0.10;0.10;;;;;;;14.56;81.29;101148.03;7356713;19;20010;-62
2023/04/30 02:33:28;;;;;;;0.00;0.00;;;;;;;14.58;81.30;101155.88;7356771;19;20070;-61
2023/04/30 02:35:54;;;;;;;0.00;0.00;;;;;;;14.57;81.78;101147.13;7359135;19;20042;-61
2023/04/30 02:38:20;;;;;;;0.10;0.10;;;;;;;14.50;81.73;101137.72;7351201;19;20356;-61
2023/04/30 02:40:45;;;;;;;0.10;0.10;;;;;;;14.47;82.11;101127.28;7356361;19;20057;-62
2023/04/30 02:43:10;;;;;;;0.00;0.00;;;;;;;14.60;82.53;101151.41;7359955;19;20015;-62
2023/04/30 02:45:36;;;;;;;0.00;0.00;;;;;;;14.61;82.22;101151.38;7351494;19;20018;-62
2023/04/30 02:48:01;;;;;;;0.00;0.00;;;;;;;14.62;81.83;101142.59;7359010;19;20479;-62
2023/04/30 02:50:27;;;;;;;0.10;0.10;;;;;;;14.65;81.61;101145.13;7355590;19;20548;-62
2023/04/30 02:52:52;;;;;;;0.00;0.00;;;;;;;14.62;80.74;101137.31;7357987;19;20784;-62
2023/04/30 02:55:17;;;;;;;0.00;0.00;;;;;;;14.63;80.63;101141.66;7354915;19;20015;-62
2023/04/30 02:57:43;;;;;;;0.10;0.10;;;;;;;14.61;79.98;101143.50;7360310;19;20716;-62
2023/04/30 03:00:09;;;;;;;0.00;0.00;;;;;;;14.56;79.62;101140.16;7335907;19;20078;-62
2023/04/30 03:02:34;;;;;;;0.10;0.10;;;;;;;14.53;79.84;101135.00;7357851;19;20017;-62
2023/04/30 03:04:59;;;;;;;0.10;0.10;;;;;;;14.48;80.78;101127.25;7334000;19;20045;-61
2023/04/30 03:07:25;;;;;;;0.10;0.10;;;;;;;14.49;80.81;101133.34;7351218;19;20011;-62
2023/04/30 03:09:51;;;;;;;0.10;0.10;;;;;;;14.48;80.48;101134.28;7357275;19;20022;-61
2023/04/30 03:12:16;;;;;;;0.00;0.00;;;;;;;14.45;80.92;101127.34;7355129;19;20034;-63
2023/04/30 03:14:41;;;;;;;0.00;0.00;;;;;;;14.44;80.58;101130.00;7354316;19;21014;-61
2023/04/30 03:17:07;;;;;;;0.10;0.10;;;;;;;14.42;80.23;101126.56;7358635;19;20006;-63
2023/04/30 03:19:32;;;;;;;0.10;0.10;;;;;;;14.40;80.43;101129.25;7330153;19;20548;-62
2023/04/30 03:21:58;;;;;;;0.00;0.00;;;;;;;14.30;80.85;101119.09;7358427;19;20014;-62
2023/04/30 03:24:24;;;;;;;0.00;0.00;;;;;;;14.34;81.23;101123.31;7354820;19;20034;-62
2023/04/30 03:26:50;;;;;;;0.00;0.00;;;;;;;14.36;80.89;101132.03;7357718;19;20018;-62
2023/04/30 03:29:15;;;;;;;0.00;0.00;;;;;;;14.35;80.62;101130.31;7357728;19;20101;-62
2023/04/30 03:31:40;;;;;;;0.03;0.03;;;;;;;14.34;81.21;101128.56;7358783;19;20695;-62
2023/04/30 03:34:06;;;;;;;0.00;0.00;;;;;;;14.33;81.45;101121.59;7357082;19;20010;-62
2023/04/30 03:36:32;;;;;;;0.00;0.00;;;;;;;14.33;80.97;101121.59;7356374;19;20018;-61
2023/04/30 03:38:58;;;;;;;0.10;0.10;;;;;;;14.31;80.96;101118.16;7358982;19;20006;-62
2023/04/30 03:41:23;;;;;;;0.00;0.00;;;;;;;14.33;81.08;101132.09;7350387;19;20006;-62
2023/04/30 03:43:48;;;;;;;0.00;0.00;;;;;;;14.34;81.48;101128.56;7358149;19;20010;-62
2023/04/30 03:46:14;;;;;;;0.05;0.05;;;;;;;14.35;81.21;101130.31;7354939;19;20026;-62
2023/04/30 03:48:39;;;;;;;0.08;0.08;;;;;;;14.36;81.90;101126.75;7357847;19;20014;-62
2023/04/30 03:51:05;;;;;;;0.03;0.03;;;;;;;14.39;82.18;101129.28;7356851;19;20821;-62
2023/04/30 03:53:30;;;;;;;0.10;0.10;;;;;;;14.41;82.16;101119.59;7354600;19;20021;-63
2023/04/30 03:55:56;;;;;;;0.10;0.10;;;;;;;14.43;82.32;101117.75;7356049;19;20021;-62
2023/04/30 03:58:22;;;;;;;0.10;0.10;;;;;;;14.35;82.22;101102.25;7354328;19;20010;-62
2023/04/30 04:00:47;;;;;;;0.00;0.00;;;;;;;14.45;82.21;101110.72;7356913;19;20651;-62
2023/04/30 04:03:14;;;;;;;0.00;0.00;;;;;;;14.46;82.47;101110.66;7356024;19;20419;-62
2023/04/30 04:05:40;;;;;;;0.10;0.10;;;;;;;14.48;82.07;101108.84;7357312;19;20025;-62
2023/04/30 04:08:06;;;;;;;0.10;0.10;;;;;;;14.49;82.17;101101.81;7354900;19;20011;-63
2023/04/30 04:10:32;;;;;;;0.03;0.03;;;;;;;14.50;82.22;101112.31;7356246;19;20022;-62
2023/04/30 04:12:58;;;;;;;0.00;0.00;;;;;;;14.52;82.42;101107.00;7356178;19;20503;-63
2023/04/30 04:15:23;;;;;;;0.00;0.00;;;;;;;14.53;82.02;101108.72;7354637;19;20106;-62
2023/04/30 04:17:48;;;;;;;0.00;0.00;;;;;;;14.55;82.16;101101.66;7356529;19;20014;-62
2023/04/30 04:20:14;;;;;;;0.10;0.10;;;;;;;14.54;82.07;101108.66;7351300;19;20616;-62
2023/04/30 04:22:39;;;;;;;0.00;0.00;;;;;;;14.56;82.36;101098.09;7357636;19;20033;-62
2023/04/30 04:25:05;;;;;;;0.00;0.00;;;;;;;14.57;81.87;101110.34;7353611;19;20042;-62
2023/04/30 04:27:31;;;;;;;0.10;0.10;;;;;;;14.57;82.20;101105.06;7356221;19;20018;-63
2023/04/30 04:29:56;;;;;;;0.00;0.00;;;;;;;14.58;81.91;101109.41;7355927;19;20031;-60
2023/04/30 04:32:22;;;;;;;0.10;0.10;;;;;;;14.57;81.67;101105.06;7352116;19;20631;-62
2023/04/30 04:34:48;;;;;;;0.10;0.10;;;;;;;14.57;82.07;101106.84;7347664;19;20027;-62
2023/04/30 04:37:14;;;;;;;0.10;0.10;;;;;;;14.58;81.95;101100.69;7356263;19;20006;-62
2023/04/30 04:39:39;;;;;;;0.10;0.10;;;;;;;14.58;81.95;101098.91;7350341;19;20624;-62
2023/04/30 04:42:05;;;;;;;0.00;0.00;;;;;;;14.58;82.09;101096.28;7354479;19;20086;-62
2023/04/30 04:44:31;;;;;;;0.10;0.10;;;;;;;14.59;82.29;101099.75;7353318;19;20079;-62
2023/04/30 04:46:57;;;;;;;0.05;0.05;;;;;;;14.54;81.78;101089.41;7356120;19;20014;-62
2023/04/30 04:49:22;;;;;;;0.00;0.00;;;;;;;14.59;81.81;101094.50;7360887;19;20017;-63
2023/04/30 04:51:48;;;;;;;0.00;0.00;;;;;;;14.61;81.77;101093.56;7363008;19;20003;-63
2023/04/30 04:54:13;;;;;;;0.00;0.00;;;;;;;14.62;81.72;101091.78;7357259;19;20045;-63
2023/04/30 04:56:39;;;;;;;0.00;0.00;;;;;;;14.50;81.91;101072.03;7362512;19;20343;-62
2023/04/30 04:59:04;;;;;;;0.03;0.03;;;;;;;14.63;81.89;101089.09;7361956;19;20007;-63
2023/04/30 05:01:29;;;;;;;0.00;0.00;;;;;;;14.57;81.87;101078.78;7361333;19;20003;-63
2023/04/30 05:03:55;;;;;;;0.00;0.00;;;;;;;14.63;81.96;101086.47;7360626;19;20039;-62
2023/04/30 05:06:20;;;;;;;0.03;0.03;;;;;;;14.63;81.71;101089.09;7361479;19;20010;-62
2023/04/30 05:08:46;;;;;;;0.10;0.10;;;;;;;14.64;81.71;101089.94;7354386;19;20010;-62
2023/04/30 05:11:11;;;;;;;0.10;0.10;;;;;;;14.37;81.96;101041.78;7361331;19;20446;-62
2023/04/30 05:13:37;;;;;;;0.10;0.10;;;;;;;14.65;82.27;101084.66;7362709;19;20041;-63
2023/04/30 05:16:02;;;;;;;0.05;0.05;;;;;;;14.67;81.83;101085.47;7361289;19;20018;-62
2023/04/30 05:18:28;;;;;;;0.00;0.00;;;;;;;14.49;82.31;101051.91;7359435;19;20006;-63
2023/04/30 05:20:53;;;;;;;0.10;0.10;;;;;;;14.70;81.79;101085.38;7361029;19;20037;-62
2023/04/30 05:23:19;;;;;;;0.10;0.10;;;;;;;14.74;82.05;101088.72;7357523;19;19998;-63
2023/04/30 05:25:45;;;;;;;0.00;0.00;;;;;;;14.69;81.96;101072.25;7361082;19;20062;-62
2023/04/30 05:28:10;;;;;;;0.10;0.10;;;;;;;14.78;81.90;101083.31;7359772;19;20014;-62
2023/04/30 05:30:36;;;;;;;0.00;0.00;;;;;;;14.68;81.96;101071.41;7354538;19;20031;-62
2023/04/30 05:33:01;;;;;;;0.10;0.10;;;;;;;14.77;82.01;101076.34;7361016;19;20010;-62
2023/04/30 05:35:26;;;;;;;0.00;0.00;;;;;;;14.77;81.45;101073.72;7360973;19;20049;-63
2023/04/30 05:37:52;;;;;;;0.10;0.10;;;;;;;14.83;81.22;101079.69;7357234;19;20094;-63
2023/04/30 05:40:17;;;;;;;0.10;0.10;;;;;;;14.83;80.79;101082.31;7360410;19;20019;-63
2023/04/30 05:42:43;;;;;;;0.00;0.00;;;;;;;14.82;80.91;101072.72;7358532;19;20011;-62
2023/04/30 05:45:13;;;;;;;0.10;0.10;;;;;;;14.83;80.92;101075.28;7362449;19;20011;-63
2023/04/30 05:47:39;;;;;;;0.10;0.10;;;;;;;14.82;81.37;101077.97;7359210;19;20006;-62
2023/04/30 05:50:06;;;;;;;0.10;0.10;;;;;;;14.82;80.46;101077.97;7355498;19;20035;-63
2023/04/30 05:52:31;;;;;;;0.10;0.10;;;;;;;14.70;80.49;101059.09;7358226;19;20013;-62
2023/04/30 05:54:57;;;;;;;0.10;0.10;;;;;;;14.81;80.76;101078.91;7359199;19;20022;-62
2023/04/30 05:57:22;;;;;;;0.00;0.00;;;;;;;14.82;79.90;101083.22;7360404;19;20474;-62
2023/04/30 05:59:48;;;;;;;0.10;0.10;;;;;;;14.81;80.69;101081.53;7347539;19;20081;-62
2023/04/30 06:02:13;;;;;;;0.00;0.00;;;;;;;14.81;79.87;101078.91;7357457;19;20021;-62
2023/04/30 06:04:39;;;;;;;0.10;0.10;;;;;;;14.79;79.83;101079.78;7358547;19;20413;-62
2023/04/30 06:07:04;;;;;;;0.00;0.00;;;;;;;14.77;80.08;101076.34;7359920;19;20082;-62
2023/04/30 06:09:30;;;;;;;0.03;0.03;;;;;;;14.77;80.09;101084.25;7351946;19;20830;-62
2023/04/30 06:11:55;;;;;;;0.03;0.03;;;;;;;14.45;80.38;101027.47;7358825;19;20587;-62
2023/04/30 06:14:21;;;;;;;0.10;0.10;;;;;;;14.74;80.27;101073.81;7354484;19;20015;-62
2023/04/30 06:16:48;;;;;;;0.10;0.10;;;;;;;14.73;80.39;101080.00;7358215;19;20018;-62
2023/04/30 06:19:13;;;;;;;0.10;0.10;;;;;;;14.74;80.14;101081.69;7360360;19;20013;-62
2023/04/30 06:21:39;;;;;;;0.00;0.00;;;;;;;14.75;79.89;101090.44;7351432;19;20010;-62
2023/04/30 06:24:05;;;;;;;0.08;0.08;;;;;;;14.75;79.86;101088.72;7358033;19;20015;-62
2023/04/30 06:26:31;;;;;;;0.00;0.00;;;;;;;14.74;79.67;101092.22;7356105;19;20043;-62
2023/04/30 06:28:56;;;;;;;0.00;0.00;;;;;;;14.72;79.78;101090.56;7359276;19;20014;-62
2023/04/30 06:31:22;;;;;;;0.00;0.00;;;;;;;14.75;79.70;101095.72;7357108;19;20013;-62
2023/04/30 06:33:47;;;;;;;0.10;0.10;;;;;;;14.74;79.79;101091.38;7356977;19;20006;-62
2023/04/30 06:36:13;;;;;;;0.00;0.00;;;;;;;14.75;79.91;101095.72;7353442;19;20011;-62
2023/04/30 06:38:40;;;;;;;0.00;0.00;;;;;;;14.78;79.80;101099.09;7353867;19;20010;-62
2023/04/30 06:41:05;;;;;;;0.03;0.03;;;;;;;14.73;79.62;101090.50;7354978;19;20022;-62
2023/04/30 06:43:31;;;;;;;0.10;0.10;;;;;;;14.75;79.91;101091.34;7354882;19;20374;-62
2023/04/30 06:45:56;;;;;;;0.08;0.08;;;;;;;14.70;80.03;101084.50;7358796;19;20017;-62
2023/04/30 06:48:22;;;;;;;0.10;0.10;;;;;;;14.83;79.79;101104.19;7356220;19;20008;-62
2023/04/30 06:50:47;;;;;;;0.10;0.10;;;;;;;14.84;80.34;101086.66;7356348;19;20010;-62
2023/04/30 06:53:13;;;;;;;0.10;0.10;;;;;;;14.87;80.04;101091.81;7348168;19;20014;-62
2023/04/30 06:55:40;;;;;;;0.10;0.10;;;;;;;14.88;79.75;101104.06;7356548;19;20688;-62
2023/04/30 06:58:06;;;;;;;0.10;0.10;;;;;;;14.91;79.42;101098.69;7353698;19;20487;-62
2023/04/30 07:00:32;;;;;;;0.00;0.00;;;;;;;14.92;80.08;101103.03;7357761;19;20026;-62
2023/04/30 07:03:01;;;;;;;0.10;0.10;;;;;;;14.94;80.19;101095.94;7354329;19;20010;-62
2023/04/30 07:05:27;;;;;;;0.10;0.10;;;;;;;14.97;79.72;101101.97;7356000;19;20024;-62
2023/04/30 07:07:53;;;;;;;0.00;0.00;;;;;;;15.00;79.66;101099.25;7353904;19;20010;-62
2023/04/30 07:10:18;;;;;;;0.10;0.10;;;;;;;15.01;79.74;101094.84;7352375;19;20023;-62
2023/04/30 07:12:44;;;;;;;0.03;0.03;;;;;;;15.03;79.57;101093.00;7356947;19;20025;-62
2023/04/30 07:15:10;;;;;;;0.00;0.00;;;;;;;15.08;79.70;101101.59;7355152;19;20066;-62
2023/04/30 07:17:36;;;;;;;0.00;0.00;;;;;;;15.11;80.14;101098.88;7347564;19;20022;-62
2023/04/30 07:20:03;;;;;;;0.00;0.00;;;;;;;15.14;80.11;101100.50;7358066;19;20022;-62
2023/04/30 07:22:29;;;;;;;0.03;0.03;;;;;;;15.18;79.80;101097.72;7350984;19;20026;-62
2023/04/30 07:24:54;;;;;;;0.00;0.00;;;;;;;15.21;80.13;101102.91;7354320;19;20108;-62
2023/04/30 07:27:20;;;;;;;0.00;0.00;;;;;;;15.21;79.64;101097.63;7357532;19;20098;-61
2023/04/30 07:29:45;;;;;;;0.03;0.03;;;;;;;15.28;79.62;101104.38;7355760;19;20014;-62
2023/04/30 07:32:11;;;;;;;0.10;0.10;;;;;;;15.35;80.13;101117.31;7357357;19;20821;-62
2023/04/30 07:34:36;;;;;;;0.10;0.10;;;;;;;15.39;79.69;101103.13;7354403;19;20007;-62
2023/04/30 07:37:02;;;;;;;0.00;0.00;;;;;;;15.46;79.60;101107.25;7355959;19;20017;-62
2023/04/30 07:39:28;;;;;;;0.10;0.10;;;;;;;15.51;79.58;101110.56;7355607;19;20035;-62
2023/04/30 07:41:53;;;;;;;0.05;0.05;;;;;;;15.54;79.84;101113.97;7356067;19;20028;-62
2023/04/30 07:44:20;;;;;;;0.05;0.05;;;;;;;15.61;79.52;101111.09;7351086;19;20022;-62
2023/04/30 07:46:46;;;;;;;0.10;0.10;;;;;;;15.65;79.74;101113.59;7355453;19;20852;-62
2023/04/30 07:49:11;;;;;;;0.08;0.08;;;;;;;15.71;79.38;101123.91;7353408;19;20010;-62
2023/04/30 07:51:37;;;;;;;0.10;0.10;;;;;;;15.75;79.00;101130.75;7354980;19;20022;-62
2023/04/30 07:54:03;;;;;;;0.10;0.10;;;;;;;15.76;79.13;101121.97;7352066;19;20015;-62
2023/04/30 07:56:29;;;;;;;0.00;0.00;;;;;;;15.77;78.79;101122.84;7350291;19;20007;-62
2023/04/30 07:58:54;;;;;;;0.10;0.10;;;;;;;15.79;78.98;101127.09;7354516;19;20871;-62
2023/04/30 08:01:20;;;;;;;0.10;0.10;;;;;;;15.80;78.86;101120.06;7354529;19;20035;-62
2023/04/30 08:03:45;;;;;;;0.10;0.10;;;;;;;15.80;78.52;101120.91;7355318;19;20022;-62
2023/04/30 08:06:11;;;;;;;0.10;0.10;;;;;;;15.80;78.55;101123.56;7341803;19;20023;-62
2023/04/30 08:08:36;;;;;;;0.10;0.10;;;;;;;15.84;78.91;101119.03;7334006;19;20046;-63
2023/04/30 08:11:02;;;;;;;0.10;0.10;;;;;;;15.89;78.76;101124.13;7344491;19;20647;-62
2023/04/30 08:13:27;;;;;;;0.10;0.10;;;;;;;15.91;78.80;101114.38;7344495;19;20345;-62
2023/04/30 08:15:53;;;;;;;0.05;0.05;;;;;;;15.99;78.81;101126.34;7334890;19;20880;-62
2023/04/30 08:18:18;;;;;;;0.05;0.05;;;;;;;16.02;78.99;101120.13;7344516;19;20050;-62
2023/04/30 08:20:44;;;;;;;0.00;0.00;;;;;;;16.08;79.05;101130.41;7339587;19;20081;-62
2023/04/30 08:23:09;;;;;;;0.10;0.10;;;;;;;16.12;78.85;101121.47;7341716;19;20006;-62
2023/04/30 08:25:35;;;;;;;0.00;0.00;;;;;;;16.17;78.83;101123.91;7341777;19;20010;-62
2023/04/30 08:28:01;;;;;;;0.00;0.00;;;;;;;16.21;78.52;101122.88;7337779;19;20018;-62
2023/04/30 08:30:26;;;;;;;0.10;0.10;;;;;;;16.23;78.64;101114.00;7353202;19;20763;-63
2023/04/30 08:32:52;;;;;;;0.05;0.05;;;;;;;16.29;78.73;101121.66;7350783;19;20481;-62
2023/04/30 08:35:18;;;;;;;0.10;0.10;;;;;;;16.28;78.46;101114.69;7352807;19;20022;-62
2023/04/30 08:37:43;;;;;;;0.00;0.00;;;;;;;16.24;78.61;101102.53;7347142;19;20011;-62
2023/04/30 08:40:10;;;;;;;0.10;0.10;;;;;;;16.38;78.44;101124.88;7352025;19;20062;-63
2023/04/30 08:42:40;;;;;;;0.03;0.03;;;;;;;16.45;78.58;101131.59;7348537;19;20455;-62
2023/04/30 08:45:10;;;;;;;0.05;0.05;;;;;;;16.55;78.34;101131.16;7352341;19;20032;-62
2023/04/30 08:47:37;;;;;;;0.10;0.10;;;;;;;16.62;78.24;101126.47;7346077;19;20011;-62
2023/04/30 08:50:03;;;;;;;0.00;0.00;;;;;;;16.69;77.99;101127.97;7340992;19;21113;-62
2023/04/30 08:52:29;;;;;;;0.00;0.00;;;;;;;16.78;78.16;101138.19;7348552;19;20340;-62
2023/04/30 08:54:56;;;;;;;0.10;0.10;;;;;;;16.82;77.40;101126.56;7346016;19;20396;-62
2023/04/30 08:57:21;;;;;;;0.10;0.10;;;;;;;16.81;77.48;101127.47;7338965;19;20584;-62
2023/04/30 08:59:47;;;;;;;0.10;0.10;;;;;;;16.86;77.80;101125.50;7348100;19;21165;-63
2023/04/30 09:02:13;;;;;;;0.05;0.05;;;;;;;16.96;78.07;101127.75;7350345;19;20498;-62
2023/04/30 09:04:38;;;;;;;0.10;0.10;;;;;;;16.94;77.81;101104.09;7346687;19;20014;-62
2023/04/30 09:07:05;;;;;;;0.10;0.10;;;;;;;17.14;77.71;101120.84;7351366;19;20011;-62
2023/04/30 09:09:37;;;;;;;0.00;0.00;;;;;;;17.27;77.21;101125.50;7349178;19;20006;-63
2023/04/30 09:12:14;;;;;;;0.10;0.10;;;;;;;17.34;76.85;101119.06;7346492;19;20018;-62
2023/04/30 09:14:40;;;;;;;0.00;0.00;;;;;;;17.35;76.91;101122.56;7353098;19;20018;-62
2023/04/30 09:17:07;;;;;;;0.10;0.10;;;;;;;17.41;76.97;101124.06;7346128;19;20574;-62
2023/04/30 09:19:33;;;;;;;0.00;0.00;;;;;;;17.49;77.07;101121.94;7343862;19;20626;-62
2023/04/30 09:22:18;;;;;;;0.03;0.03;;;;;;;17.72;77.40;101119.09;7354712;19;20010;-63
2023/04/30 09:24:48;;;;;;;0.00;0.00;;;;;;;17.88;76.88;101125.41;7347323;19;20014;-62
2023/04/30 09:27:18;;;;;;;0.10;0.10;;;;;;;18.04;77.04;101098.28;7350401;19;20459;-63
2023/04/30 09:29:45;;;;;;;0.10;0.10;;;;;;;18.07;76.14;101098.16;7349322;19;20015;-63
2023/04/30 09:32:10;;;;;;;0.10;0.10;;;;;;;18.42;75.49;101121.09;7354504;19;20070;-63
2023/04/30 09:34:36;;;;;;;0.00;0.00;;;;;;;18.62;75.36;101127.22;7357700;19;20504;-62
2023/04/30 09:37:02;;;;;;;0.10;0.10;;;;;;;18.81;75.00;101125.41;7359077;19;20010;-63
2023/04/30 09:39:29;;;;;;;0.00;0.00;;;;;;;18.99;74.64;101133.31;7355431;19;20872;-62
2023/04/30 09:42:10;;;;;;;0.10;0.10;;;;;;;19.16;74.34;101120.09;7355309;19;20616;-63
2023/04/30 09:44:39;;;;;;;0.03;0.03;;;;;;;19.12;74.14;101111.44;7354287;19;20081;-63
2023/04/30 09:47:12;;;;;;;0.10;0.10;;;;;;;19.20;73.41;101129.56;7352966;19;20014;-63
2023/04/30 09:49:40;;;;;;;0.10;0.10;;;;;;;19.16;73.40;101122.75;7351337;19;20003;-63
2023/04/30 09:52:06;;;;;;;0.10;0.10;;;;;;;19.14;73.61;101125.44;7332499;19;20010;-63
2023/04/30 09:54:31;;;;;;;0.10;0.10;;;;;;;19.01;73.72;101097.91;7355990;19;20003;-63
2023/04/30 09:57:01;;;;;;;0.10;0.10;;;;;;;19.23;74.49;101117.97;7351652;19;20011;-63
2023/04/30 09:59:31;;;;;;;0.00;0.00;;;;;;;19.39;74.19;101109.16;7354996;19;20002;-63
2023/04/30 10:02:02;;;;;;;0.10;0.10;;;;;;;19.65;74.27;101120.16;7349533;19;20015;-63
2023/04/30 10:04:54;;;;;;;0.00;0.00;;;;;;;19.86;74.20;101124.31;7353386;19;20030;-63
2023/04/30 10:07:20;;;;;;;0.10;0.10;;;;;;;19.89;73.68;101123.28;7254690;19;2004496;-63
2023/04/30 10:10:07;;;;;;;0.10;0.10;;;;;;;20.05;73.31;101118.00;7353382;19;20034;-63
2023/04/30 10:12:47;;;;;;;0.10;0.10;;;;;;;20.08;72.68;101123.13;7355694;19;20473;-64
2023/04/30 10:15:34;;;;;;;0.10;0.10;;;;;;;20.13;72.94;101123.75;7353966;19;20020;-63
2023/04/30 10:18:04;;;;;;;0.00;0.00;;;;;;;20.12;72.98;101117.59;7354078;19;20019;-63
2023/04/30 10:20:33;;;;;;;0.10;0.10;;;;;;;20.18;72.98;101124.34;7356230;19;20077;-63
2023/04/30 10:22:59;;;;;;;0.10;0.10;;;;;;;20.23;72.75;101122.28;7351335;19;20031;-63
2023/04/30 10:25:27;;;;;;;0.10;0.10;;;;;;;20.27;71.57;101128.25;7348116;19;20544;-63
2023/04/30 10:27:52;;;;;;;;;;;;;;;20.41;72.12;101123.88;7344332;19;20018;-63
2023/04/30 10:30:17;;;;;;;0.00;0.00;;;;;;;20.23;71.40;101100.22;7352000;19;20633;-63
2023/04/30 10:33:00;;;;;;;0.10;0.10;;;;;;;20.41;71.41;101121.22;7341528;19;20554;-63
2023/04/30 10:35:29;;;;;;;0.10;0.10;;;;;;;20.39;71.60;101123.13;7336415;19;20021;-63
2023/04/30 10:38:14;;;;;;;0.10;0.10;;;;;;;20.54;71.72;101125.88;7330727;19;20475;-63
2023/04/30 10:40:39;;;;;;;0.13;0.13;;;;;;;20.56;70.70;101118.66;7351352;19;21021;-62
2023/04/30 10:43:05;;;;;;;0.10;0.10;;;;;;;20.62;70.63;101118.31;7353242;19;20024;-63
2023/04/30 10:45:36;;;;;;;0.00;0.00;;;;;;;20.76;71.06;101128.97;7352422;19;20034;-64
2023/04/30 10:48:02;;;;;;;0.10;0.10;;;;;;;20.83;71.37;101119.69;7350825;19;20709;-63
2023/04/30 10:50:28;;;;;;;0.00;0.00;;;;;;;21.05;71.07;101105.19;7355738;19;20029;-63
2023/04/30 10:53:02;;;;;;;0.00;0.00;;;;;;;21.25;71.77;101086.22;7351968;19;20014;-63
2023/04/30 10:55:29;;;;;;;0.03;0.03;;;;;;;21.49;71.27;101090.06;7354605;19;20829;-63
2023/04/30 10:57:56;;;;;;;0.10;0.10;;;;;;;21.86;70.24;101103.69;7344794;19;20040;-63
2023/04/30 11:00:27;;;;;;;0.10;0.10;;;;;;;22.23;70.34;101102.22;7354916;19;20018;-63
2023/04/30 11:03:01;;;;;;;0.05;0.05;;;;;;;22.49;70.18;101099.66;7350590;19;20027;-63
2023/04/30 11:05:38;;;;;;;0.10;0.10;;;;;;;22.77;69.38;101101.34;7351135;19;20030;-63
2023/04/30 11:08:04;;;;;;;0.00;0.00;;;;;;;22.94;68.26;101093.06;7348257;19;20089;-63
2023/04/30 11:10:33;;;;;;;0.05;0.05;;;;;;;23.32;68.31;101100.25;7350611;19;20018;-64
2023/04/30 11:13:03;;;;;;;0.10;0.10;;;;;;;23.61;65.80;101087.50;7351274;19;20010;-64
2023/04/30 11:15:44;;;;;;;0.10;0.10;;;;;;;24.00;68.50;101083.81;7352580;19;20904;-63
2023/04/30 11:18:12;;;;;;;0.00;0.00;;;;;;;24.23;66.10;101083.94;7338676;19;20013;-63
2023/04/30 11:20:47;;;;;;;0.00;0.00;;;;;;;24.63;66.19;101086.34;7347820;19;20822;-63
2023/04/30 11:23:15;;;;;;;0.00;0.00;;;;;;;24.82;64.53;101084.81;7350131;19;20010;-63
2023/04/30 11:25:45;;;;;;;0.10;0.10;;;;;;;25.00;63.74;101079.91;7345021;19;20045;-63